Time;durP1;ratioP1;P1;durP2;ratioP2;P2;SDS_P1;SDS_P2;PMS_P1;PMS_P2;Temp;Humidity;BMP_temperature;BMP_pressure;BME280_temperature;BME280_humidity;BME280_pressure;Samples;Min_cycle;Max_cycle;Signal;HPM_P1;HPM_P2
2023/07/19 00:01:16;;;;;;;6.65;1.80;;;;;;;;;;5069394;28;20040;-59
2023/07/19 00:03:44;;;;;;;9.00;2.10;;;;;;;;;;5052265;28;20422;-60
2023/07/19 00:06:12;;;;;;;8.37;2.50;;;;;;;;;;5068405;28;20052;-59
2023/07/19 00:08:39;;;;;;;9.80;2.00;;;;;;;;;;5061224;28;20525;-60
2023/07/19 00:11:09;;;;;;;8.80;2.33;;;;;;;;;;5070995;28;20051;-59
2023/07/19 00:13:36;;;;;;;13.30;2.70;;;;;;;;;;5062468;28;20578;-59
2023/07/19 00:16:04;;;;;;;12.52;2.60;;;;;;;;;;5063727;28;20056;-59
2023/07/19 00:18:32;;;;;;;9.93;2.27;;;;;;;;;;5058238;28;20094;-58
2023/07/19 00:21:00;;;;;;;9.88;2.70;;;;;;;;;;5063341;28;20586;-59
2023/07/19 00:23:28;;;;;;;8.95;2.75;;;;;;;;;;5045768;28;20887;-59
2023/07/19 00:25:56;;;;;;;6.88;2.20;;;;;;;;;;5068775;28;20048;-59
2023/07/19 00:28:25;;;;;;;6.97;2.40;;;;;;;;;;5064716;28;20529;-59
2023/07/19 00:31:03;;;;;;;7.80;2.43;;;;;;;;;;5067846;28;20052;-58
2023/07/19 00:33:31;;;;;;;9.68;2.72;;;;;;;;;;5065159;28;20051;-58
2023/07/19 00:35:58;;;;;;;8.82;2.60;;;;;;;;;;5059232;28;20052;-59
2023/07/19 00:38:26;;;;;;;8.70;3.53;;;;;;;;;;5066788;28;20309;-59
2023/07/19 00:40:54;;;;;;;7.88;2.78;;;;;;;;;;5051886;28;20054;-59
2023/07/19 00:43:24;;;;;;;8.03;2.77;;;;;;;;;;5058283;28;20051;-59
2023/07/19 00:45:54;;;;;;;7.57;2.65;;;;;;;;;;5060410;28;20047;-59
2023/07/19 00:48:22;;;;;;;9.93;3.00;;;;;;;;;;5055664;28;20044;-59
2023/07/19 00:50:51;;;;;;;8.30;2.85;;;;;;;;;;5067131;28;20390;-59
2023/07/19 00:53:19;;;;;;;10.27;3.20;;;;;;;;;;5062234;28;20786;-59
2023/07/19 00:55:49;;;;;;;10.73;3.17;;;;;;;;;;5068954;28;20058;-59
2023/07/19 00:58:17;;;;;;;10.20;2.72;;;;;;;;;;5056059;28;20071;-59
2023/07/19 01:00:45;;;;;;;7.35;2.53;;;;;;;;;;5055738;28;20397;-59
2023/07/19 01:03:14;;;;;;;10.52;2.72;;;;;;;;;;5065240;28;20040;-59
2023/07/19 01:05:43;;;;;;;10.15;2.53;;;;;;;;;;5037699;28;20741;-59
2023/07/19 01:08:11;;;;;;;10.33;2.53;;;;;;;;;;5066897;28;20082;-58
2023/07/19 01:10:39;;;;;;;10.35;3.17;;;;;;;;;;5054184;28;20051;-60
2023/07/19 01:13:07;;;;;;;9.68;2.60;;;;;;;;;;5067617;28;20592;-59
2023/07/19 01:15:36;;;;;;;8.52;2.85;;;;;;;;;;5056127;28;20051;-59
2023/07/19 01:18:04;;;;;;;8.57;2.30;;;;;;;;;;5069398;28;20075;-59
2023/07/19 01:20:33;;;;;;;9.30;2.80;;;;;;;;;;5043074;28;20045;-60
2023/07/19 01:23:05;;;;;;;10.32;2.70;;;;;;;;;;5056433;28;20402;-60
2023/07/19 01:25:33;;;;;;;10.70;3.45;;;;;;;;;;5058424;28;20639;-60
2023/07/19 01:28:01;;;;;;;8.35;2.88;;;;;;;;;;5037641;28;20055;-59
2023/07/19 01:30:29;;;;;;;10.38;2.47;;;;;;;;;;5069655;28;20771;-59
2023/07/19 01:32:57;;;;;;;8.77;2.67;;;;;;;;;;5055078;28;20048;-60
2023/07/19 01:35:24;;;;;;;7.82;2.83;;;;;;;;;;5069716;28;20056;-59
2023/07/19 01:37:52;;;;;;;11.80;2.70;;;;;;;;;;5058994;28;20548;-60
2023/07/19 01:40:21;;;;;;;7.88;2.45;;;;;;;;;;5065028;28;20052;-60
2023/07/19 01:42:49;;;;;;;7.22;2.60;;;;;;;;;;5066756;28;20048;-59
2023/07/19 01:45:16;;;;;;;7.67;2.93;;;;;;;;;;5048908;28;20298;-59
2023/07/19 01:47:44;;;;;;;7.93;2.70;;;;;;;;;;5070724;28;20058;-59
2023/07/19 01:50:12;;;;;;;10.38;3.10;;;;;;;;;;5053736;28;20040;-59
2023/07/19 01:52:40;;;;;;;8.40;2.67;;;;;;;;;;5069430;28;20556;-59
2023/07/19 01:55:08;;;;;;;10.38;3.13;;;;;;;;;;5034939;28;20051;-59
2023/07/19 01:57:37;;;;;;;11.10;2.70;;;;;;;;;;5051288;28;20052;-59
2023/07/19 02:00:05;;;;;;;9.70;2.67;;;;;;;;;;5063211;28;20044;-60
2023/07/19 02:02:33;;;;;;;9.00;2.80;;;;;;;;;;5070951;28;20048;-59
2023/07/19 02:05:01;;;;;;;9.52;2.53;;;;;;;;;;5060272;28;20052;-59
2023/07/19 02:07:29;;;;;;;9.57;2.80;;;;;;;;;;5069692;28;20123;-59
2023/07/19 02:09:57;;;;;;;11.13;2.67;;;;;;;;;;5060891;28;20653;-60
2023/07/19 02:12:24;;;;;;;9.63;2.70;;;;;;;;;;5063738;28;20131;-59
2023/07/19 02:14:54;;;;;;;8.27;2.63;;;;;;;;;;5063334;28;20051;-60
2023/07/19 02:17:22;;;;;;;10.07;3.20;;;;;;;;;;5061793;28;20050;-59
2023/07/19 02:19:52;;;;;;;11.02;2.95;;;;;;;;;;5058899;28;20121;-60
2023/07/19 02:22:19;;;;;;;9.27;3.23;;;;;;;;;;5057874;28;20041;-59
2023/07/19 02:25:05;;;;;;;11.00;3.10;;;;;;;;;;5033735;28;20783;-59
2023/07/19 02:27:33;;;;;;;10.82;3.33;;;;;;;;;;5059283;28;20048;-59
2023/07/19 02:30:02;;;;;;;8.25;3.03;;;;;;;;;;5048946;28;20051;-59
2023/07/19 02:32:30;;;;;;;11.15;3.47;;;;;;;;;;5058968;28;20044;-59
2023/07/19 02:34:58;;;;;;;11.50;3.20;;;;;;;;;;5044881;28;20044;-59
2023/07/19 02:37:25;;;;;;;14.35;3.03;;;;;;;;;;5052089;28;20044;-58
2023/07/19 02:39:53;;;;;;;18.52;3.42;;;;;;;;;;5069850;28;20048;-58
2023/07/19 02:42:21;;;;;;;9.18;2.90;;;;;;;;;;5046543;28;20037;-58
2023/07/19 02:44:49;;;;;;;12.65;3.17;;;;;;;;;;5062650;28;20067;-58
2023/07/19 02:47:18;;;;;;;10.63;3.07;;;;;;;;;;5051828;28;20071;-59
2023/07/19 02:49:48;;;;;;;15.93;4.40;;;;;;;;;;5070767;28;20048;-58
2023/07/19 02:52:16;;;;;;;11.10;3.40;;;;;;;;;;5066109;28;21676;-58
2023/07/19 02:54:44;;;;;;;9.82;3.33;;;;;;;;;;5033315;28;20100;-58
2023/07/19 02:57:12;;;;;;;9.73;3.20;;;;;;;;;;5051192;28;20056;-59
2023/07/19 02:59:39;;;;;;;10.13;3.30;;;;;;;;;;5046223;28;20045;-59
2023/07/19 03:02:09;;;;;;;10.88;3.42;;;;;;;;;;5046158;28;20052;-59
2023/07/19 03:04:38;;;;;;;7.57;3.08;;;;;;;;;;5051516;28;20032;-58
2023/07/19 03:07:07;;;;;;;8.93;3.42;;;;;;;;;;5056708;28;20499;-58
2023/07/19 03:09:37;;;;;;;11.88;3.28;;;;;;;;;;5057408;28;20059;-59
2023/07/19 03:12:05;;;;;;;13.00;3.30;;;;;;;;;;5058393;28;20051;-59
2023/07/19 03:14:38;;;;;;;12.35;3.80;;;;;;;;;;5056995;28;20054;-59
2023/07/19 03:17:06;;;;;;;9.43;2.95;;;;;;;;;;5059657;28;20620;-59
2023/07/19 03:19:35;;;;;;;11.02;3.45;;;;;;;;;;5063309;28;20490;-58
2023/07/19 03:22:04;;;;;;;10.98;3.67;;;;;;;;;;5061964;28;20129;-59
2023/07/19 03:24:32;;;;;;;15.03;4.00;;;;;;;;;;5066309;28;20063;-58
2023/07/19 03:26:59;;;;;;;10.65;3.53;;;;;;;;;;5062581;28;20052;-58
2023/07/19 03:29:27;;;;;;;13.55;3.85;;;;;;;;;;5060206;28;20055;-59
2023/07/19 03:31:55;;;;;;;13.77;3.25;;;;;;;;;;5016785;28;20059;-59
2023/07/19 03:34:23;;;;;;;10.82;3.58;;;;;;;;;;5052403;28;20490;-59
2023/07/19 03:36:51;;;;;;;9.37;2.87;;;;;;;;;;5059724;28;20048;-58
2023/07/19 03:39:20;;;;;;;13.52;3.75;;;;;;;;;;5060485;28;20063;-59
2023/07/19 03:41:48;;;;;;;9.85;3.63;;;;;;;;;;5053746;28;21445;-59
2023/07/19 03:44:15;;;;;;;10.60;3.25;;;;;;;;;;5060746;28;20143;-59
2023/07/19 03:46:43;;;;;;;9.98;3.30;;;;;;;;;;5055907;28;20525;-59
2023/07/19 03:49:13;;;;;;;13.10;3.17;;;;;;;;;;5054777;28;20486;-59
2023/07/19 03:51:40;;;;;;;9.07;3.22;;;;;;;;;;5065760;28;20055;-60
2023/07/19 03:54:08;;;;;;;16.73;4.03;;;;;;;;;;5067198;28;20050;-59
2023/07/19 03:56:37;;;;;;;10.93;3.58;;;;;;;;;;5023764;28;20049;-59
2023/07/19 03:59:05;;;;;;;12.48;3.60;;;;;;;;;;5071018;28;20062;-59
2023/07/19 04:01:33;;;;;;;13.17;3.33;;;;;;;;;;5047911;28;20401;-58
2023/07/19 04:04:01;;;;;;;13.90;3.30;;;;;;;;;;5067720;28;20439;-59
2023/07/19 04:06:29;;;;;;;12.55;3.65;;;;;;;;;;5059610;28;20048;-58
2023/07/19 04:08:57;;;;;;;12.18;2.97;;;;;;;;;;5064870;28;20803;-59
2023/07/19 04:11:24;;;;;;;11.80;3.15;;;;;;;;;;5066377;28;20052;-58
2023/07/19 04:13:54;;;;;;;13.83;3.93;;;;;;;;;;5033224;28;20068;-58
2023/07/19 04:16:22;;;;;;;11.50;4.03;;;;;;;;;;5077440;28;20047;-58
2023/07/19 04:18:49;;;;;;;10.07;3.05;;;;;;;;;;5060132;28;20489;-58
2023/07/19 04:21:17;;;;;;;9.95;3.28;;;;;;;;;;5071756;28;20056;-58
2023/07/19 04:23:45;;;;;;;10.30;3.78;;;;;;;;;;5065395;28;20276;-59
2023/07/19 04:26:13;;;;;;;13.87;3.93;;;;;;;;;;5066049;28;20051;-58
2023/07/19 04:28:41;;;;;;;8.77;3.28;;;;;;;;;;5051143;28;20044;-59
2023/07/19 04:31:10;;;;;;;11.23;3.65;;;;;;;;;;5060590;28;20044;-59
2023/07/19 04:33:37;;;;;;;12.77;3.63;;;;;;;;;;5065502;28;20055;-58
2023/07/19 04:36:12;;;;;;;11.05;4.40;;;;;;;;;;5056759;28;20457;-58
2023/07/19 04:38:40;;;;;;;10.97;3.30;;;;;;;;;;5067032;28;20062;-59
2023/07/19 04:41:11;;;;;;;13.85;3.58;;;;;;;;;;5057130;28;20056;-59
2023/07/19 04:43:39;;;;;;;13.82;3.45;;;;;;;;;;5072480;28;20044;-59
2023/07/19 04:46:06;;;;;;;11.20;4.00;;;;;;;;;;5050700;28;20052;-59
2023/07/19 04:48:35;;;;;;;9.80;3.20;;;;;;;;;;5061238;28;20486;-59
2023/07/19 04:51:06;;;;;;;13.63;3.63;;;;;;;;;;5053522;28;20060;-59
2023/07/19 04:53:34;;;;;;;10.57;3.20;;;;;;;;;;5067469;28;20146;-59
2023/07/19 04:56:01;;;;;;;9.85;3.63;;;;;;;;;;5055969;28;20440;-59
2023/07/19 04:58:30;;;;;;;11.07;4.13;;;;;;;;;;5069827;28;20059;-59
2023/07/19 05:01:03;;;;;;;15.10;4.18;;;;;;;;;;5058656;28;20059;-59
2023/07/19 05:03:31;;;;;;;13.20;3.80;;;;;;;;;;5056519;28;20615;-58
2023/07/19 05:06:00;;;;;;;11.50;4.13;;;;;;;;;;5046007;28;20510;-59
2023/07/19 05:08:29;;;;;;;11.65;3.97;;;;;;;;;;5057725;28;20040;-59
2023/07/19 05:10:57;;;;;;;10.55;3.47;;;;;;;;;;5056340;28;20518;-59
2023/07/19 05:13:25;;;;;;;12.70;4.20;;;;;;;;;;5067318;28;20051;-58
2023/07/19 05:15:56;;;;;;;14.17;4.37;;;;;;;;;;5029138;28;20575;-59
2023/07/19 05:18:24;;;;;;;12.85;3.80;;;;;;;;;;5061254;28;20040;-59
2023/07/19 05:20:52;;;;;;;10.80;3.67;;;;;;;;;;5066719;28;20573;-58
2023/07/19 05:23:21;;;;;;;13.80;4.65;;;;;;;;;;5046808;28;20155;-59
2023/07/19 05:25:49;;;;;;;12.77;4.03;;;;;;;;;;5066153;28;20800;-59
2023/07/19 05:28:20;;;;;;;10.10;3.50;;;;;;;;;;5050141;28;20059;-59
2023/07/19 05:30:48;;;;;;;13.45;3.90;;;;;;;;;;5064079;28;20044;-59
2023/07/19 05:33:15;;;;;;;18.70;4.25;;;;;;;;;;5050513;28;20434;-59
2023/07/19 05:35:43;;;;;;;13.40;3.60;;;;;;;;;;5061336;28;20066;-59
2023/07/19 05:38:12;;;;;;;12.73;4.35;;;;;;;;;;5051920;28;20067;-58
2023/07/19 05:40:42;;;;;;;11.13;3.80;;;;;;;;;;5048272;28;20445;-59
2023/07/19 05:43:09;;;;;;;11.15;3.70;;;;;;;;;;5055648;28;20046;-59
2023/07/19 05:45:37;;;;;;;13.48;3.92;;;;;;;;;;5069684;28;20132;-58
2023/07/19 05:48:05;;;;;;;14.13;4.22;;;;;;;;;;5049150;28;20557;-59
2023/07/19 05:50:33;;;;;;;13.90;5.00;;;;;;;;;;5069778;28;20075;-60
2023/07/19 05:53:00;;;;;;;15.60;3.90;;;;;;;;;;5052703;28;20052;-59
2023/07/19 05:55:28;;;;;;;10.00;3.63;;;;;;;;;;5069679;28;20538;-59
2023/07/19 05:57:57;;;;;;;11.52;4.43;;;;;;;;;;5045452;28;20422;-59
2023/07/19 06:00:28;;;;;;;12.20;4.28;;;;;;;;;;5068868;28;20040;-59
2023/07/19 06:02:57;;;;;;;14.15;4.05;;;;;;;;;;5059933;28;20063;-61
2023/07/19 06:05:25;;;;;;;11.27;3.97;;;;;;;;;;5056880;28;20052;-59
2023/07/19 06:07:53;;;;;;;12.07;4.18;;;;;;;;;;5064384;28;20127;-58
2023/07/19 06:10:21;;;;;;;10.85;4.15;;;;;;;;;;5050627;28;20043;-59
2023/07/19 06:12:49;;;;;;;11.30;4.57;;;;;;;;;;5059161;28;20052;-59
2023/07/19 06:15:19;;;;;;;11.77;4.13;;;;;;;;;;5043745;28;20046;-59
2023/07/19 06:17:47;;;;;;;11.53;4.33;;;;;;;;;;5064289;28;20090;-61
2023/07/19 06:20:15;;;;;;;12.15;4.57;;;;;;;;;;5058448;28;21119;-58
2023/07/19 06:22:43;;;;;;;15.88;4.35;;;;;;;;;;5064417;28;20480;-59
2023/07/19 06:25:11;;;;;;;13.38;3.88;;;;;;;;;;5055729;28;20039;-58
2023/07/19 06:27:39;;;;;;;11.20;4.00;;;;;;;;;;5067807;28;20040;-59
2023/07/19 06:30:07;;;;;;;9.80;4.07;;;;;;;;;;5034249;28;20055;-59
2023/07/19 06:32:36;;;;;;;9.98;4.10;;;;;;;;;;5051754;28;20148;-58
2023/07/19 06:35:05;;;;;;;9.98;3.78;;;;;;;;;;5063594;28;20059;-59
2023/07/19 06:37:32;;;;;;;9.40;3.53;;;;;;;;;;5063187;28;20084;-58
2023/07/19 06:40:03;;;;;;;11.25;3.60;;;;;;;;;;5037985;28;20048;-59
2023/07/19 06:42:32;;;;;;;12.00;4.00;;;;;;;;;;5061915;28;20054;-57
2023/07/19 06:45:00;;;;;;;9.88;3.42;;;;;;;;;;5054236;28;20044;-58
2023/07/19 06:47:28;;;;;;;9.23;3.85;;;;;;;;;;5055256;28;20052;-58
2023/07/19 06:49:57;;;;;;;8.90;3.33;;;;;;;;;;5060683;28;20062;-59
2023/07/19 06:52:25;;;;;;;15.55;4.70;;;;;;;;;;5056944;28;20052;-59
2023/07/19 06:54:56;;;;;;;13.70;3.73;;;;;;;;;;5059009;28;20127;-59
2023/07/19 06:57:24;;;;;;;12.27;4.40;;;;;;;;;;5060495;28;20052;-59
2023/07/19 06:59:53;;;;;;;10.35;4.05;;;;;;;;;;5057304;28;20068;-58
2023/07/19 07:02:22;;;;;;;11.80;3.63;;;;;;;;;;5058083;28;20098;-60
2023/07/19 07:04:52;;;;;;;10.48;4.00;;;;;;;;;;5053125;28;20136;-59
2023/07/19 07:07:21;;;;;;;9.93;3.47;;;;;;;;;;5063511;28;20052;-59
2023/07/19 07:09:48;;;;;;;9.23;4.00;;;;;;;;;;5036347;28;20040;-59
2023/07/19 07:12:16;;;;;;;10.23;3.28;;;;;;;;;;5063445;28;20121;-60
2023/07/19 07:14:44;;;;;;;10.00;3.85;;;;;;;;;;5068037;28;20048;-59
2023/07/19 07:17:13;;;;;;;10.68;4.22;;;;;;;;;;5064593;28;20071;-60
2023/07/19 07:19:41;;;;;;;8.90;2.97;;;;;;;;;;5070752;28;20094;-60
2023/07/19 07:22:09;;;;;;;8.15;3.35;;;;;;;;;;5042691;28;20043;-60
2023/07/19 07:24:39;;;;;;;8.65;2.58;;;;;;;;;;5062345;28;20048;-61
2023/07/19 07:27:07;;;;;;;9.15;3.20;;;;;;;;;;5051952;28;20059;-61
2023/07/19 07:29:36;;;;;;;10.75;3.80;;;;;;;;;;5069343;28;20048;-60
2023/07/19 07:32:04;;;;;;;8.40;3.40;;;;;;;;;;5059559;28;20047;-61
2023/07/19 07:34:31;;;;;;;9.00;3.35;;;;;;;;;;5045539;28;20047;-60
2023/07/19 07:36:59;;;;;;;9.90;3.25;;;;;;;;;;5065520;28;20513;-61
2023/07/19 07:39:27;;;;;;;10.32;3.60;;;;;;;;;;5060909;28;20124;-61
2023/07/19 07:41:59;;;;;;;7.55;3.47;;;;;;;;;;5053924;28;20056;-61
2023/07/19 07:44:27;;;;;;;5.80;2.70;;;;;;;;;;5049703;28;20051;-61
2023/07/19 07:46:55;;;;;;;8.57;2.78;;;;;;;;;;5045351;28;20072;-61
2023/07/19 07:49:23;;;;;;;7.93;2.90;;;;;;;;;;5055943;28;20044;-61
2023/07/19 07:51:51;;;;;;;9.33;2.87;;;;;;;;;;4725542;28;9999883;-61
2023/07/19 07:54:20;;;;;;;7.45;2.15;;;;;;;;;;5049015;28;20245;-61
2023/07/19 07:56:47;;;;;;;5.97;1.83;;;;;;;;;;5067934;28;20120;-61
2023/07/19 07:59:16;;;;;;;8.80;2.30;;;;;;;;;;5056285;28;20040;-61
2023/07/19 08:01:44;;;;;;;6.90;2.13;;;;;;;;;;5060463;28;20082;-61
2023/07/19 08:04:12;;;;;;;6.97;2.40;;;;;;;;;;4676639;28;10000140;-61
2023/07/19 08:06:40;;;;;;;9.38;2.00;;;;;;;;;;5035464;28;20044;-61
2023/07/19 08:09:28;;;;;;;7.47;1.80;;;;;;;;;;5037706;28;20052;-61
2023/07/19 08:11:57;;;;;;;6.15;1.80;;;;;;;;;;5039548;28;20052;-61
2023/07/19 08:14:26;;;;;;;6.05;2.20;;;;;;;;;;5045891;28;20056;-61
2023/07/19 08:16:54;;;;;;;4.90;1.60;;;;;;;;;;5039250;28;20094;-61
2023/07/19 08:19:22;;;;;;;5.65;1.58;;;;;;;;;;5050420;28;20063;-61
2023/07/19 08:21:50;;;;;;;7.07;1.45;;;;;;;;;;5030945;28;21269;-60
2023/07/19 08:24:17;;;;;;;4.90;1.40;;;;;;;;;;5038400;28;20066;-61
2023/07/19 08:26:45;;;;;;;5.07;1.65;;;;;;;;;;5041163;28;20112;-60
2023/07/19 08:29:13;;;;;;;6.20;1.80;;;;;;;;;;5045405;28;20048;-61
2023/07/19 08:31:42;;;;;;;4.30;1.08;;;;;;;;;;5034140;28;20611;-61
2023/07/19 08:34:10;;;;;;;4.95;1.48;;;;;;;;;;5034824;28;20214;-61
2023/07/19 08:36:40;;;;;;;5.30;1.50;;;;;;;;;;5045537;28;20052;-61
2023/07/19 08:39:08;;;;;;;4.45;1.30;;;;;;;;;;5053851;28;20044;-61
2023/07/19 08:41:36;;;;;;;6.00;1.20;;;;;;;;;;5038930;28;20055;-60
2023/07/19 08:44:04;;;;;;;5.13;1.20;;;;;;;;;;5042591;28;20060;-60
2023/07/19 08:46:33;;;;;;;5.07;1.60;;;;;;;;;;5035273;28;20055;-60
2023/07/19 08:49:02;;;;;;;4.40;1.45;;;;;;;;;;5042421;28;20052;-60
2023/07/19 08:51:30;;;;;;;4.88;1.30;;;;;;;;;;5035614;28;20134;-60
2023/07/19 08:54:03;;;;;;;4.43;1.17;;;;;;;;;;5049111;28;20060;-60
2023/07/19 08:56:35;;;;;;;6.25;1.10;;;;;;;;;;5059106;28;20157;-60
2023/07/19 08:59:02;;;;;;;5.35;1.42;;;;;;;;;;5038833;28;20040;-60
2023/07/19 09:01:30;;;;;;;5.43;1.08;;;;;;;;;;5031350;28;20341;-60
2023/07/19 09:03:58;;;;;;;5.20;1.42;;;;;;;;;;5045560;28;20052;-61
2023/07/19 09:06:30;;;;;;;4.53;1.23;;;;;;;;;;5046674;28;20063;-60
2023/07/19 09:08:57;;;;;;;3.40;0.90;;;;;;;;;;5049926;28;20071;-60
2023/07/19 09:11:25;;;;;;;6.97;1.50;;;;;;;;;;5045691;28;20060;-60
2023/07/19 09:13:54;;;;;;;4.53;1.33;;;;;;;;;;5046479;28;20143;-59
2023/07/19 09:16:26;;;;;;;6.30;1.23;;;;;;;;;;5050831;28;20047;-60
2023/07/19 09:18:54;;;;;;;8.93;1.80;;;;;;;;;;5029589;28;20052;-60
2023/07/19 09:21:36;;;;;;;4.10;0.80;;;;;;;;;;5056727;28;20530;-60
2023/07/19 09:24:05;;;;;;;5.05;1.10;;;;;;;;;;5053605;28;20060;-59
2023/07/19 09:26:48;;;;;;;5.20;1.42;;;;;;;;;;5042560;28;20052;-59
2023/07/19 09:29:16;;;;;;;4.95;1.50;;;;;;;;;;5048883;28;20063;-59
2023/07/19 09:31:53;;;;;;;4.20;1.40;;;;;;;;;;5045807;28;20493;-60
2023/07/19 09:34:38;;;;;;;5.25;1.45;;;;;;;;;;5051154;28;20075;-59
2023/07/19 09:37:07;;;;;;;4.10;1.20;;;;;;;;;;5068473;28;20109;-60
2023/07/19 09:39:36;;;;;;;5.28;1.15;;;;;;;;;;5039184;28;20498;-59
2023/07/19 09:42:04;;;;;;;4.60;0.93;;;;;;;;;;5058433;28;20040;-59
2023/07/19 09:44:33;;;;;;;4.67;1.20;;;;;;;;;;5058773;28;20052;-59
2023/07/19 09:47:01;;;;;;;4.00;0.90;;;;;;;;;;5069171;28;20056;-60
2023/07/19 09:49:49;;;;;;;4.22;0.85;;;;;;;;;;5050384;28;20052;-60
2023/07/19 09:52:20;;;;;;;4.00;1.17;;;;;;;;;;5061011;28;20040;-60
2023/07/19 09:54:47;;;;;;;4.25;1.30;;;;;;;;;;5057964;28;20635;-59
2023/07/19 09:57:16;;;;;;;4.77;0.80;;;;;;;;;;5051884;28;20055;-60
2023/07/19 09:59:49;;;;;;;2.75;0.80;;;;;;;;;;5068602;28;20392;-60
2023/07/19 10:02:17;;;;;;;4.95;1.10;;;;;;;;;;5060127;28;20040;-60
2023/07/19 10:04:50;;;;;;;3.45;1.08;;;;;;;;;;4361129;28;10000718;-60
2023/07/19 10:07:26;;;;;;;4.30;1.00;;;;;;;;;;5062871;28;20101;-60
2023/07/19 10:10:15;;;;;;;4.45;0.88;;;;;;;;;;5056719;28;20048;-60
2023/07/19 10:12:46;;;;;;;2.97;0.73;;;;;;;;;;5056648;28;20047;-60
2023/07/19 10:15:14;;;;;;;4.57;0.60;;;;;;;;;;5059406;28;20437;-60
2023/07/19 10:17:53;;;;;;;3.80;1.00;;;;;;;;;;5070655;28;20051;-59
2023/07/19 10:20:23;;;;;;;3.70;1.10;;;;;;;;;;5056513;28;20062;-59
2023/07/19 10:22:56;;;;;;;5.55;1.13;;;;;;;;;;5068167;28;20052;-60
2023/07/19 10:25:25;;;;;;;5.70;0.70;;;;;;;;;;5058944;28;20056;-59
2023/07/19 10:27:57;;;;;;;3.85;0.82;;;;;;;;;;5063762;28;21022;-59
2023/07/19 10:30:49;;;;;;;5.35;0.90;;;;;;;;;;5052024;28;20381;-59
2023/07/19 10:33:19;;;;;;;2.97;0.60;;;;;;;;;;5029978;28;20094;-59
2023/07/19 10:35:47;;;;;;;3.65;0.88;;;;;;;;;;5056701;28;20810;-61
2023/07/19 10:38:17;;;;;;;2.85;0.60;;;;;;;;;;5033979;28;21089;-58
2023/07/19 10:40:46;;;;;;;3.25;0.80;;;;;;;;;;5065871;28;20051;-59
2023/07/19 10:43:14;;;;;;;3.75;0.80;;;;;;;;;;5014705;28;20048;-59
2023/07/19 10:45:51;;;;;;;3.00;0.47;;;;;;;;;;5071375;28;20052;-59
2023/07/19 10:48:19;;;;;;;3.30;0.82;;;;;;;;;;5043119;28;20046;-59
2023/07/19 10:50:49;;;;;;;4.03;0.90;;;;;;;;;;5070214;28;20089;-59
2023/07/19 10:53:18;;;;;;;2.97;0.90;;;;;;;;;;5058006;28;20055;-61
2023/07/19 10:55:45;;;;;;;2.78;0.60;;;;;;;;;;5055761;28;20056;-61
2023/07/19 10:58:21;;;;;;;3.10;1.00;;;;;;;;;;5070079;28;20047;-61
2023/07/19 11:00:49;;;;;;;2.85;0.70;;;;;;;;;;5058978;28;20506;-61
2023/07/19 11:03:17;;;;;;;2.65;0.60;;;;;;;;;;5019056;28;20573;-61
2023/07/19 11:05:47;;;;;;;2.88;0.80;;;;;;;;;;5067864;28;20040;-61
2023/07/19 11:08:22;;;;;;;2.75;0.77;;;;;;;;;;5056019;28;20044;-59
2023/07/19 11:10:51;;;;;;;2.50;0.50;;;;;;;;;;5036466;28;20053;-59
2023/07/19 11:13:20;;;;;;;4.50;0.55;;;;;;;;;;5062685;28;20264;-59
2023/07/19 11:15:53;;;;;;;3.80;0.73;;;;;;;;;;5061789;28;20528;-59
2023/07/19 11:18:26;;;;;;;3.70;1.13;;;;;;;;;;5062450;28;20627;-60
2023/07/19 11:20:54;;;;;;;3.65;0.80;;;;;;;;;;5070335;28;20052;-59
2023/07/19 11:23:24;;;;;;;3.60;1.00;;;;;;;;;;5060032;28;20047;-60
2023/07/19 11:25:51;;;;;;;3.67;0.85;;;;;;;;;;5065142;28;20135;-58
2023/07/19 11:28:35;;;;;;;4.10;0.90;;;;;;;;;;5060613;28;20040;-59
2023/07/19 11:31:03;;;;;;;3.05;0.93;;;;;;;;;;5055987;28;20122;-59
2023/07/19 11:33:34;;;;;;;3.58;0.90;;;;;;;;;;5071612;28;20131;-56
2023/07/19 11:36:05;;;;;;;2.93;0.73;;;;;;;;;;5052897;28;20063;-60
2023/07/19 11:38:37;;;;;;;3.78;0.80;;;;;;;;;;5060824;28;20052;-59
2023/07/19 11:41:06;;;;;;;3.20;0.60;;;;;;;;;;5059429;28;20048;-60
2023/07/19 11:43:41;;;;;;;3.83;0.88;;;;;;;;;;5064433;28;20139;-59
2023/07/19 11:46:09;;;;;;;5.97;0.90;;;;;;;;;;5057340;28;20113;-60
2023/07/19 11:48:37;;;;;;;2.50;0.60;;;;;;;;;;5071100;28;20101;-60
2023/07/19 11:51:05;;;;;;;3.15;1.00;;;;;;;;;;5067374;28;20044;-59
2023/07/19 11:53:33;;;;;;;3.53;0.60;;;;;;;;;;5069487;28;20048;-60
2023/07/19 11:56:03;;;;;;;3.33;0.80;;;;;;;;;;5059359;28;20147;-60
2023/07/19 11:58:38;;;;;;;2.53;0.57;;;;;;;;;;5059633;28;20075;-60
2023/07/19 12:01:13;;;;;;;2.47;0.40;;;;;;;;;;5062406;28;20050;-60
2023/07/19 12:03:42;;;;;;;3.13;0.63;;;;;;;;;;5060800;28;20126;-60
2023/07/19 12:06:10;;;;;;;2.97;0.75;;;;;;;;;;5059248;28;20056;-60
2023/07/19 12:08:38;;;;;;;3.13;0.98;;;;;;;;;;5073244;28;20066;-60
2023/07/19 12:11:08;;;;;;;2.33;0.50;;;;;;;;;;5061692;28;20057;-60
2023/07/19 12:13:36;;;;;;;3.17;0.50;;;;;;;;;;5057019;28;20056;-59
2023/07/19 12:16:03;;;;;;;2.63;0.70;;;;;;;;;;5057782;28;20115;-60
2023/07/19 12:18:31;;;;;;;4.20;1.02;;;;;;;;;;5063019;28;20060;-60
2023/07/19 12:20:59;;;;;;;3.17;0.88;;;;;;;;;;5051384;28;20044;-60
2023/07/19 12:23:27;;;;;;;4.55;0.68;;;;;;;;;;5060427;28;20125;-60
2023/07/19 12:25:58;;;;;;;2.67;0.50;;;;;;;;;;5056092;28;20056;-60
2023/07/19 12:28:27;;;;;;;3.97;1.10;;;;;;;;;;5057531;28;20064;-60
2023/07/19 12:30:55;;;;;;;4.00;0.60;;;;;;;;;;5044127;28;20048;-60
2023/07/19 12:33:24;;;;;;;3.27;0.80;;;;;;;;;;4695036;28;10000369;-60
2023/07/19 12:35:51;;;;;;;4.32;0.60;;;;;;;;;;5051724;28;20055;-58
2023/07/19 12:38:20;;;;;;;3.97;0.60;;;;;;;;;;5036427;28;20148;-60
2023/07/19 12:40:47;;;;;;;3.67;1.00;;;;;;;;;;5053557;28;20067;-60
2023/07/19 12:43:15;;;;;;;3.80;0.80;;;;;;;;;;5051899;28;20055;-60
2023/07/19 12:45:44;;;;;;;2.92;0.90;;;;;;;;;;5070091;28;20052;-60
2023/07/19 12:48:12;;;;;;;3.63;0.60;;;;;;;;;;5037577;28;20706;-59
2023/07/19 12:50:39;;;;;;;3.97;1.17;;;;;;;;;;5054374;28;20119;-59
2023/07/19 12:53:07;;;;;;;3.15;0.68;;;;;;;;;;5060025;28;20054;-59
2023/07/19 12:55:35;;;;;;;2.43;0.53;;;;;;;;;;5047013;28;20275;-60
2023/07/19 12:58:03;;;;;;;1.53;0.30;;;;;;;;;;4357562;28;10021026;-60
2023/07/19 13:00:30;;;;;;;2.45;0.50;;;;;;;;;;5055368;28;20052;-60
2023/07/19 13:03:01;;;;;;;2.10;0.47;;;;;;;;;;5060938;28;20040;-60
2023/07/19 13:05:32;;;;;;;2.27;0.50;;;;;;;;;;5048913;28;20048;-60
2023/07/19 13:08:00;;;;;;;2.58;0.60;;;;;;;;;;5063436;28;20680;-59
2023/07/19 13:10:27;;;;;;;2.97;0.60;;;;;;;;;;5059454;28;20079;-60
2023/07/19 13:12:56;;;;;;;4.53;0.75;;;;;;;;;;5066573;28;20154;-60
2023/07/19 13:15:41;;;;;;;2.58;0.60;;;;;;;;;;5059530;28;20051;-60
2023/07/19 13:18:10;;;;;;;2.73;0.80;;;;;;;;;;5066996;28;20633;-61
2023/07/19 13:20:38;;;;;;;2.60;0.60;;;;;;;;;;5054607;28;20052;-60
2023/07/19 13:23:08;;;;;;;2.97;0.80;;;;;;;;;;5061977;28;20482;-61
2023/07/19 13:25:38;;;;;;;3.13;0.90;;;;;;;;;;5057133;28;20044;-59
2023/07/19 13:28:05;;;;;;;4.93;0.75;;;;;;;;;;5058934;28;20658;-60
2023/07/19 13:30:37;;;;;;;2.60;0.60;;;;;;;;;;5066227;28;20054;-60
2023/07/19 13:33:05;;;;;;;2.55;0.63;;;;;;;;;;5052137;28;20681;-60
2023/07/19 13:35:34;;;;;;;3.45;0.43;;;;;;;;;;5050495;28;20048;-60
2023/07/19 13:38:06;;;;;;;2.20;0.50;;;;;;;;;;5064326;28;20063;-60
2023/07/19 13:40:34;;;;;;;3.03;0.60;;;;;;;;;;5051141;28;20045;-60
2023/07/19 13:43:02;;;;;;;2.40;0.50;;;;;;;;;;5057668;28;21395;-60
2023/07/19 13:45:30;;;;;;;2.67;0.55;;;;;;;;;;5069652;28;20517;-60
2023/07/19 13:47:58;;;;;;;8.00;0.70;;;;;;;;;;5060688;28;20047;-60
2023/07/19 13:50:26;;;;;;;2.40;0.60;;;;;;;;;;5070733;28;20486;-60
2023/07/19 13:52:55;;;;;;;3.38;0.63;;;;;;;;;;5062969;28;20040;-59
2023/07/19 13:55:23;;;;;;;2.80;0.50;;;;;;;;;;5058199;28;20128;-60
2023/07/19 13:57:50;;;;;;;3.10;0.60;;;;;;;;;;5072959;28;20056;-60
2023/07/19 14:00:18;;;;;;;3.13;0.73;;;;;;;;;;5055450;28;20044;-60
2023/07/19 14:02:46;;;;;;;3.22;1.10;;;;;;;;;;5054451;28;20051;-59
2023/07/19 14:05:14;;;;;;;2.65;0.70;;;;;;;;;;5059896;28;20048;-59
2023/07/19 14:07:42;;;;;;;2.80;0.60;;;;;;;;;;5057838;28;20082;-60
2023/07/19 14:10:11;;;;;;;2.80;0.60;;;;;;;;;;5068099;28;20488;-59
2023/07/19 14:12:40;;;;;;;2.92;0.65;;;;;;;;;;5060857;28;20045;-59
2023/07/19 14:15:13;;;;;;;2.60;0.80;;;;;;;;;;5053747;28;20051;-60
2023/07/19 14:17:41;;;;;;;2.90;0.82;;;;;;;;;;5069784;28;20055;-60
2023/07/19 14:20:09;;;;;;;2.40;0.70;;;;;;;;;;5054145;28;20048;-60
2023/07/19 14:22:37;;;;;;;2.40;0.47;;;;;;;;;;5064954;28;20052;-59
2023/07/19 14:25:06;;;;;;;3.00;0.80;;;;;;;;;;5056121;28;20713;-59
2023/07/19 14:27:36;;;;;;;2.67;0.75;;;;;;;;;;5059990;28;20055;-59
2023/07/19 14:30:05;;;;;;;2.80;0.73;;;;;;;;;;5055704;28;20044;-59
2023/07/19 14:32:50;;;;;;;3.43;0.70;;;;;;;;;;5045565;28;20376;-59
2023/07/19 14:35:19;;;;;;;2.83;0.73;;;;;;;;;;5064450;28;20139;-59
2023/07/19 14:37:46;;;;;;;2.67;0.82;;;;;;;;;;5059857;28;20048;-59
2023/07/19 14:40:14;;;;;;;3.75;1.10;;;;;;;;;;5060558;28;20040;-58
2023/07/19 14:42:45;;;;;;;3.72;1.00;;;;;;;;;;5058354;28;20039;-59
2023/07/19 14:45:13;;;;;;;3.00;0.97;;;;;;;;;;5063628;28;20051;-59
2023/07/19 14:47:40;;;;;;;3.22;0.90;;;;;;;;;;5057826;28;20120;-59
2023/07/19 14:50:12;;;;;;;3.03;0.70;;;;;;;;;;5058492;28;20094;-57